Forside
METAR-TAF:

METAR-TAF

Lufthavne :

Rabat, Marokko

Breddekreds: 34-03N, længdekreds: 006-46W, højde: 84 m

Aktuelle vejr

Denne rapport blev lavet for 39 minutter siden, kl. 11:30 UTC
Vind 9 kt fra sydvest
Temperatur 13°C
Fugtighed 72%
Tryk 1025 hPa
Sigt: 8000 m
Spredte skyer i en højde af 1600 ft
Brudte skyer i en højde af 2600 ft

METAR: GMME 221130Z 22009KT 8000 SCT016 BKN026 13/08 Q1025 NOSIG

Tid: 12:09 (12:09 UTC)

Vejrudsigter

Denne rapport blev lavet for 1 time og 9 minutter siden, kl. 11:00 UTC
Foreløbig gælder fra 22 på 12 UTC til 23 på 18 UTC
Vind 10 kt fra vest
Sigt: 8000 m
Brudte skyer i en højde af 1600 ft
Brudte skyer i en højde af 2000 ft
Midlertidig
fra 22 på 15 UTC til 23 på 06 UTC
Vind 15 kt fra sydvest
Sigt: 5000 m
Brudte skyer i en højde af 1300 ft
Brudte skyer i en højde af 8000 ft
regn

TAF: GMME 221100Z 2212/2318 28010KT 8000 BKN016 BKN020 TEMPO 2215/2306 22015KT 5000 RA BKN013 BKN080

Vejrobservationer og prognoser fra mere end 4000 lufthavne (METAR og TAF).

De gule og røde prikker repræsenterer de meteorologiske stationer.

Flyt musen over at se navnet på stationen.

Så klik over at se vejr observationer og prognoser.

At skifte det kort: Klik på de grønne knapper med et sort kors for at zoome ind; på den grønne knap med en bindestreg for at zoome ud; eller på de grønne pile for tilstødende kort.


METAR-TAF: